Time;durP1;ratioP1;P1;durP2;ratioP2;P2;SDS_P1;SDS_P2;PMS_P1;PMS_P2;Temp;Humidity;BMP_temperature;BMP_pressure;BME280_temperature;BME280_humidity;BME280_pressure;Samples;Min_cycle;Max_cycle;Signal;HPM_P1;HPM_P2
2022/05/04 00:00:07;;;;;;;13.50;2.30;;;;;;;;;;5085887;28;20530;-68
2022/05/04 00:02:34;;;;;;;14.93;2.47;;;;;;;;;;5083299;28;20093;-68
2022/05/04 00:05:01;;;;;;;7.97;2.20;;;;;;;;;;5083827;28;20059;-68
2022/05/04 00:07:28;;;;;;;9.07;2.20;;;;;;;;;;5084135;28;20120;-68
2022/05/04 00:09:57;;;;;;;8.73;2.03;;;;;;;;;;5084827;28;20055;-68
2022/05/04 00:12:24;;;;;;;11.02;2.33;;;;;;;;;;5085149;28;20044;-68
2022/05/04 00:14:53;;;;;;;8.20;1.85;;;;;;;;;;5085237;28;20067;-68
2022/05/04 00:17:20;;;;;;;11.93;1.80;;;;;;;;;;5085057;28;20063;-68
2022/05/04 00:19:47;;;;;;;9.43;2.03;;;;;;;;;;5087316;28;20650;-68
2022/05/04 00:22:18;;;;;;;13.48;2.20;;;;;;;;;;5081870;28;20636;-68
2022/05/04 00:24:45;;;;;;;10.60;2.05;;;;;;;;;;5086683;28;20532;-68
2022/05/04 00:27:14;;;;;;;13.68;2.25;;;;;;;;;;5086863;28;20047;-68
2022/05/04 00:29:41;;;;;;;12.43;2.00;;;;;;;;;;5083904;28;20067;-68
2022/05/04 00:32:11;;;;;;;8.73;2.03;;;;;;;;;;5085429;28;20048;-68
2022/05/04 00:34:38;;;;;;;13.90;2.50;;;;;;;;;;5077564;28;20127;-68
2022/05/04 00:37:06;;;;;;;10.48;2.00;;;;;;;;;;5084569;28;20052;-68
2022/05/04 00:39:33;;;;;;;11.35;1.92;;;;;;;;;;5085065;28;20063;-68
2022/05/04 00:42:10;;;;;;;7.28;1.80;;;;;;;;;;5084613;28;20560;-68
2022/05/04 00:44:37;;;;;;;9.80;1.95;;;;;;;;;;5085027;28;20112;-67
2022/05/04 00:47:05;;;;;;;10.90;2.10;;;;;;;;;;5084979;28;20048;-67
2022/05/04 00:49:34;;;;;;;8.73;2.25;;;;;;;;;;5079396;28;20500;-67
2022/05/04 00:52:01;;;;;;;10.43;1.83;;;;;;;;;;5085230;28;20056;-67
2022/05/04 00:54:28;;;;;;;12.45;2.00;;;;;;;;;;5086910;28;20098;-67
2022/05/04 00:56:56;;;;;;;9.85;1.88;;;;;;;;;;5088532;28;20064;-67
2022/05/04 00:59:22;;;;;;;11.20;2.35;;;;;;;;;;5084617;28;20040;-67
2022/05/04 01:01:49;;;;;;;13.70;2.40;;;;;;;;;;5084253;28;20490;-67
2022/05/04 01:04:18;;;;;;;12.68;1.67;;;;;;;;;;5081916;28;20109;-67
2022/05/04 01:06:47;;;;;;;9.52;1.63;;;;;;;;;;5082307;28;20052;-67
2022/05/04 01:09:15;;;;;;;11.93;1.92;;;;;;;;;;5082934;28;20059;-69
2022/05/04 01:11:42;;;;;;;9.68;1.73;;;;;;;;;;5080853;28;20056;-68
2022/05/04 01:14:11;;;;;;;7.55;1.63;;;;;;;;;;5087527;28;20109;-68
2022/05/04 01:16:39;;;;;;;14.32;2.65;;;;;;;;;;5084817;28;20075;-68
2022/05/04 01:19:07;;;;;;;11.13;2.30;;;;;;;;;;5078604;28;20063;-68
2022/05/04 01:21:34;;;;;;;11.45;2.47;;;;;;;;;;5084586;28;20127;-68
2022/05/04 01:24:03;;;;;;;14.98;2.30;;;;;;;;;;5084796;28;20051;-68
2022/05/04 01:26:30;;;;;;;9.05;1.88;;;;;;;;;;5080218;28;20152;-68
2022/05/04 01:28:57;;;;;;;11.55;2.03;;;;;;;;;;5084438;28;20052;-68
2022/05/04 01:31:25;;;;;;;12.55;2.00;;;;;;;;;;5084163;28;20040;-68
2022/05/04 01:33:52;;;;;;;8.02;1.55;;;;;;;;;;5081948;28;20056;-68
2022/05/04 01:36:19;;;;;;;10.88;2.10;;;;;;;;;;5084967;28;20048;-68
2022/05/04 01:38:46;;;;;;;10.32;1.98;;;;;;;;;;5083818;28;20494;-68
2022/05/04 01:44:00;;;;;;;9.68;1.85;;;;;;;;;;5085804;28;20182;-68
2022/05/04 01:46:27;;;;;;;10.40;1.85;;;;;;;;;;5082359;28;20056;-68
2022/05/04 01:48:55;;;;;;;8.88;1.88;;;;;;;;;;5076375;28;20610;-68
2022/05/04 01:51:22;;;;;;;9.90;1.60;;;;;;;;;;5081162;28;20060;-68
2022/05/04 01:53:50;;;;;;;9.57;1.58;;;;;;;;;;5082376;28;20056;-68
2022/05/04 01:56:18;;;;;;;7.72;1.92;;;;;;;;;;5083903;28;20059;-68
2022/05/04 01:58:45;;;;;;;12.18;2.13;;;;;;;;;;5081697;28;20732;-68
2022/05/04 02:01:13;;;;;;;9.90;1.90;;;;;;;;;;5087581;28;20052;-68
2022/05/04 02:03:40;;;;;;;10.38;2.13;;;;;;;;;;5087380;28;20569;-68
2022/05/04 02:06:08;;;;;;;7.93;1.70;;;;;;;;;;5086142;28;20117;-68
2022/05/04 02:08:35;;;;;;;12.43;1.98;;;;;;;;;;5084457;28;20055;-68
2022/05/04 02:11:03;;;;;;;9.40;2.10;;;;;;;;;;5088535;28;20044;-68
2022/05/04 02:13:31;;;;;;;10.38;2.00;;;;;;;;;;5089092;28;20051;-68
2022/05/04 02:15:58;;;;;;;10.80;2.20;;;;;;;;;;5086929;28;20043;-68
2022/05/04 02:18:26;;;;;;;8.45;2.15;;;;;;;;;;5087382;28;20437;-68
2022/05/04 02:20:53;;;;;;;8.90;1.80;;;;;;;;;;5088063;28;20051;-68
2022/05/04 02:23:20;;;;;;;11.27;2.17;;;;;;;;;;5087993;28;20105;-68
2022/05/04 02:25:47;;;;;;;7.05;1.50;;;;;;;;;;5084272;28;20125;-68
2022/05/04 02:28:14;;;;;;;7.55;1.73;;;;;;;;;;5085987;28;20048;-68
2022/05/04 02:30:44;;;;;;;9.95;1.52;;;;;;;;;;5089096;28;20129;-68
2022/05/04 02:33:12;;;;;;;13.40;1.95;;;;;;;;;;5086727;28;20466;-68
2022/05/04 02:38:23;;;;;;;8.90;1.48;;;;;;;;;;5089024;28;20387;-68
2022/05/04 02:40:51;;;;;;;7.82;2.05;;;;;;;;;;5086289;28;20394;-68
2022/05/04 02:43:18;;;;;;;11.40;2.25;;;;;;;;;;5084726;28;20047;-68
2022/05/04 02:45:47;;;;;;;13.30;2.25;;;;;;;;;;5086716;28;20102;-68
2022/05/04 02:48:14;;;;;;;10.23;1.90;;;;;;;;;;5084909;28;20044;-68
2022/05/04 02:50:41;;;;;;;8.77;1.85;;;;;;;;;;5086388;28;20229;-68
2022/05/04 02:53:08;;;;;;;12.35;2.00;;;;;;;;;;5088181;28;20406;-68
2022/05/04 02:55:36;;;;;;;9.50;2.03;;;;;;;;;;5086372;28;20048;-68
2022/05/04 02:58:03;;;;;;;10.20;1.77;;;;;;;;;;5086308;28;20052;-68
2022/05/04 03:00:30;;;;;;;11.88;1.90;;;;;;;;;;5086389;28;20047;-68
2022/05/04 03:02:59;;;;;;;8.82;2.42;;;;;;;;;;5085530;28;20846;-68
2022/05/04 03:05:26;;;;;;;11.80;2.08;;;;;;;;;;5086666;28;20052;-68
2022/05/04 03:07:53;;;;;;;7.80;1.85;;;;;;;;;;5085310;28;20067;-68
2022/05/04 03:10:20;;;;;;;12.95;2.58;;;;;;;;;;5081996;28;20044;-68
2022/05/04 03:12:47;;;;;;;9.43;1.77;;;;;;;;;;5087864;28;20467;-68
2022/05/04 03:15:14;;;;;;;14.35;1.90;;;;;;;;;;5086485;28;20052;-68
2022/05/04 03:17:42;;;;;;;10.63;2.13;;;;;;;;;;5086124;28;20091;-68
2022/05/04 03:20:12;;;;;;;11.98;2.38;;;;;;;;;;5083508;28;20059;-68
2022/05/04 03:22:39;;;;;;;8.93;2.33;;;;;;;;;;5082489;28;20464;-68
2022/05/04 03:25:08;;;;;;;10.68;2.00;;;;;;;;;;5085768;28;20048;-68
2022/05/04 03:27:35;;;;;;;9.05;2.10;;;;;;;;;;5087841;28;20048;-68
2022/05/04 03:30:02;;;;;;;10.55;2.17;;;;;;;;;;5086518;28;20347;-68
2022/05/04 03:32:30;;;;;;;9.50;2.25;;;;;;;;;;5087662;28;20101;-68
2022/05/04 03:34:57;;;;;;;10.90;1.90;;;;;;;;;;5085833;28;20060;-68
2022/05/04 03:37:25;;;;;;;9.30;2.50;;;;;;;;;;5080750;28;20395;-68
2022/05/04 03:39:53;;;;;;;12.38;2.83;;;;;;;;;;5079963;28;20126;-68
2022/05/04 03:42:20;;;;;;;9.10;2.15;;;;;;;;;;5077919;28;20052;-68
2022/05/04 03:44:47;;;;;;;10.25;2.13;;;;;;;;;;5077678;28;20059;-68
2022/05/04 03:47:14;;;;;;;10.10;2.30;;;;;;;;;;5078150;28;20044;-68
2022/05/04 03:49:41;;;;;;;8.30;1.90;;;;;;;;;;5074008;28;20048;-68
2022/05/04 03:52:09;;;;;;;10.80;2.13;;;;;;;;;;5078274;28;20121;-68
2022/05/04 03:54:38;;;;;;;10.80;2.17;;;;;;;;;;5078161;28;20185;-68
2022/05/04 03:57:05;;;;;;;8.48;1.88;;;;;;;;;;5081495;28;20043;-68
2022/05/04 03:59:32;;;;;;;7.43;1.80;;;;;;;;;;5080064;28;20056;-68
2022/05/04 04:02:00;;;;;;;13.13;2.42;;;;;;;;;;5080021;28;20063;-68
2022/05/04 04:04:27;;;;;;;10.18;1.65;;;;;;;;;;5079617;28;20056;-68
2022/05/04 04:06:54;;;;;;;9.05;1.80;;;;;;;;;;5075474;28;20048;-68
2022/05/04 04:09:21;;;;;;;8.90;2.00;;;;;;;;;;5079413;28;20097;-68
2022/05/04 04:11:50;;;;;;;12.15;2.60;;;;;;;;;;5082109;28;20127;-68
2022/05/04 04:14:17;;;;;;;11.55;2.25;;;;;;;;;;5078937;28;20048;-68
2022/05/04 04:16:44;;;;;;;12.30;2.05;;;;;;;;;;5085203;28;20185;-68
2022/05/04 04:19:11;;;;;;;13.50;2.60;;;;;;;;;;5085481;28;20052;-68
2022/05/04 04:21:53;;;;;;;11.35;2.60;;;;;;;;;;5085846;28;20048;-68
2022/05/04 04:24:21;;;;;;;12.80;2.20;;;;;;;;;;5085475;28;20088;-68
2022/05/04 04:26:50;;;;;;;9.13;1.80;;;;;;;;;;5079115;28;20063;-68
2022/05/04 04:29:17;;;;;;;13.05;1.98;;;;;;;;;;5079105;28;20071;-68
2022/05/04 04:31:44;;;;;;;14.70;2.47;;;;;;;;;;5084479;28;20056;-68
2022/05/04 04:34:11;;;;;;;7.43;2.08;;;;;;;;;;5081215;28;20055;-68
2022/05/04 04:36:39;;;;;;;13.30;2.28;;;;;;;;;;5083895;28;20083;-68
2022/05/04 04:39:06;;;;;;;10.68;2.35;;;;;;;;;;5083862;28;20051;-68
2022/05/04 04:41:33;;;;;;;8.65;1.95;;;;;;;;;;5084545;28;20500;-68
2022/05/04 04:44:02;;;;;;;10.38;1.95;;;;;;;;;;5085838;28;20055;-68
2022/05/04 04:46:29;;;;;;;8.02;1.90;;;;;;;;;;5084854;28;20398;-68
2022/05/04 04:48:58;;;;;;;10.82;2.13;;;;;;;;;;5079657;28;20054;-68
2022/05/04 04:51:25;;;;;;;9.30;1.90;;;;;;;;;;5085348;28;20095;-68
2022/05/04 04:53:52;;;;;;;9.43;2.45;;;;;;;;;;5078455;28;20048;-68
2022/05/04 04:56:19;;;;;;;8.20;1.80;;;;;;;;;;5084080;28;20048;-68
2022/05/04 04:58:46;;;;;;;13.25;2.28;;;;;;;;;;5083327;28;20052;-68
2022/05/04 05:01:15;;;;;;;10.05;1.88;;;;;;;;;;5084932;28;20052;-68
2022/05/04 05:03:42;;;;;;;12.50;2.08;;;;;;;;;;5075981;28;20060;-68
2022/05/04 05:06:09;;;;;;;10.63;2.55;;;;;;;;;;5081789;28;20154;-68
2022/05/04 05:08:36;;;;;;;13.35;2.78;;;;;;;;;;5081392;28;20052;-68
2022/05/04 05:11:04;;;;;;;8.55;2.15;;;;;;;;;;5080150;28;20052;-68
2022/05/04 05:13:31;;;;;;;8.18;2.05;;;;;;;;;;5098245;28;20553;-68
2022/05/04 05:16:09;;;;;;;11.82;2.20;;;;;;;;;;5084309;28;20048;-68
2022/05/04 05:18:38;;;;;;;10.57;1.77;;;;;;;;;;5072971;28;20048;-68
2022/05/04 05:21:06;;;;;;;11.82;2.17;;;;;;;;;;5079287;28;20093;-68
2022/05/04 05:23:33;;;;;;;9.80;2.00;;;;;;;;;;5077175;28;20048;-68
2022/05/04 05:26:00;;;;;;;13.20;2.05;;;;;;;;;;5076357;28;20048;-68
2022/05/04 05:28:27;;;;;;;11.43;2.08;;;;;;;;;;5074581;28;20060;-68
2022/05/04 05:30:54;;;;;;;11.93;2.20;;;;;;;;;;5075868;28;20044;-68
2022/05/04 05:33:22;;;;;;;9.27;2.10;;;;;;;;;;5072196;28;20106;-68
2022/05/04 05:35:50;;;;;;;15.52;2.40;;;;;;;;;;5072273;28;20059;-68
2022/05/04 05:38:18;;;;;;;9.60;1.90;;;;;;;;;;5075341;28;20044;-68
2022/05/04 05:40:45;;;;;;;6.95;1.50;;;;;;;;;;5071580;28;20055;-68
2022/05/04 05:43:12;;;;;;;9.55;1.70;;;;;;;;;;5079884;28;20631;-68
2022/05/04 05:45:39;;;;;;;6.35;1.70;;;;;;;;;;5071088;28;20139;-68
2022/05/04 05:48:07;;;;;;;9.20;1.90;;;;;;;;;;5077043;28;20413;-68
2022/05/04 05:50:34;;;;;;;9.13;2.75;;;;;;;;;;5076090;28;20054;-68
2022/05/04 05:53:04;;;;;;;9.27;1.77;;;;;;;;;;5078807;28;20776;-68
2022/05/04 05:55:31;;;;;;;9.02;2.03;;;;;;;;;;5074502;28;20055;-68
2022/05/04 05:57:59;;;;;;;9.73;1.83;;;;;;;;;;5085149;28;20486;-68
2022/05/04 06:00:27;;;;;;;10.82;1.98;;;;;;;;;;5080796;28;20168;-68
2022/05/04 06:02:54;;;;;;;9.38;1.98;;;;;;;;;;5088592;28;20078;-68
2022/05/04 06:05:21;;;;;;;14.60;2.22;;;;;;;;;;5086742;28;20374;-68
2022/05/04 06:07:49;;;;;;;10.63;1.80;;;;;;;;;;5084041;28;20048;-68
2022/05/04 06:10:18;;;;;;;6.40;1.50;;;;;;;;;;5084714;28;20043;-68
2022/05/04 06:12:45;;;;;;;11.98;1.88;;;;;;;;;;5083242;28;20138;-68
2022/05/04 06:15:14;;;;;;;10.00;2.10;;;;;;;;;;5081376;28;20044;-69
2022/05/04 06:17:42;;;;;;;10.32;1.88;;;;;;;;;;5086402;28;20044;-68
2022/05/04 06:20:09;;;;;;;8.93;2.30;;;;;;;;;;5085026;28;20079;-68
2022/05/04 06:22:37;;;;;;;10.65;2.00;;;;;;;;;;5083642;28;20808;-68
2022/05/04 06:25:04;;;;;;;7.97;1.83;;;;;;;;;;5084873;28;20396;-68
2022/05/04 06:27:33;;;;;;;8.75;1.70;;;;;;;;;;5080605;28;20048;-68
2022/05/04 06:35:30;;;;;;;8.43;1.83;;;;;;;;;;5078141;28;20142;-68
2022/05/04 06:37:57;;;;;;;13.23;2.25;;;;;;;;;;5094051;28;20067;-68
2022/05/04 06:40:25;;;;;;;6.57;1.70;;;;;;;;;;5074812;28;20109;-68
2022/05/04 06:42:53;;;;;;;10.05;1.80;;;;;;;;;;5074771;28;20055;-68
2022/05/04 06:45:20;;;;;;;7.63;2.00;;;;;;;;;;5075835;28;20052;-68
2022/05/04 06:47:48;;;;;;;10.43;1.90;;;;;;;;;;5076019;28;20541;-68
2022/05/04 06:50:15;;;;;;;7.50;2.10;;;;;;;;;;5077177;28;20055;-68
2022/05/04 06:52:42;;;;;;;8.70;1.70;;;;;;;;;;5076164;28;20064;-68
2022/05/04 06:55:10;;;;;;;7.35;1.90;;;;;;;;;;5074501;28;21381;-68
2022/05/04 06:57:37;;;;;;;7.00;1.55;;;;;;;;;;5077666;28;20486;-68
2022/05/04 07:00:07;;;;;;;9.15;2.30;;;;;;;;;;5074876;28;20137;-69
2022/05/04 07:02:35;;;;;;;9.43;1.67;;;;;;;;;;5074430;28;20059;-68
2022/05/04 07:05:02;;;;;;;6.38;1.75;;;;;;;;;;5075922;28;20052;-68
2022/05/04 07:07:29;;;;;;;8.35;1.88;;;;;;;;;;5074905;28;20083;-68
2022/05/04 07:09:58;;;;;;;11.23;2.00;;;;;;;;;;5073906;28;20048;-68
2022/05/04 07:12:25;;;;;;;13.20;2.13;;;;;;;;;;5075594;28;20089;-68
2022/05/04 07:14:55;;;;;;;8.73;1.60;;;;;;;;;;5074886;28;20044;-68
2022/05/04 07:17:24;;;;;;;12.02;1.92;;;;;;;;;;5083517;28;20075;-69
2022/05/04 07:19:51;;;;;;;7.80;1.63;;;;;;;;;;5080763;28;20563;-68
2022/05/04 07:22:19;;;;;;;9.30;2.00;;;;;;;;;;5084631;28;20490;-68
2022/05/04 07:24:46;;;;;;;8.38;1.67;;;;;;;;;;5087704;28;20506;-68
2022/05/04 07:27:13;;;;;;;8.65;1.60;;;;;;;;;;5086950;28;20086;-69
2022/05/04 07:29:42;;;;;;;9.35;1.73;;;;;;;;;;5086772;28;20059;-68
2022/05/04 07:32:10;;;;;;;10.57;1.52;;;;;;;;;;5086481;28;20226;-68
2022/05/04 07:34:38;;;;;;;8.10;2.15;;;;;;;;;;5083689;28;20105;-69
2022/05/04 07:37:06;;;;;;;10.65;1.90;;;;;;;;;;5079954;28;20044;-69
2022/05/04 07:42:24;;;;;;;7.22;1.85;;;;;;;;;;5083400;28;20129;-68
2022/05/04 07:44:51;;;;;;;10.32;2.22;;;;;;;;;;5082250;28;20515;-68
2022/05/04 07:47:19;;;;;;;13.63;2.35;;;;;;;;;;5084817;28;20518;-68
2022/05/04 07:49:48;;;;;;;10.73;1.92;;;;;;;;;;5082125;28;20162;-68
2022/05/04 07:52:15;;;;;;;9.95;1.90;;;;;;;;;;5082123;28;20048;-68
2022/05/04 07:54:43;;;;;;;10.32;1.85;;;;;;;;;;5084819;28;20044;-68
2022/05/04 07:57:10;;;;;;;9.93;1.80;;;;;;;;;;5086355;28;20054;-68
2022/05/04 07:59:37;;;;;;;8.40;1.85;;;;;;;;;;5085867;28;20052;-69
2022/05/04 08:04:51;;;;;;;7.40;1.73;;;;;;;;;;5076916;28;20129;-68
2022/05/04 08:07:18;;;;;;;7.38;1.60;;;;;;;;;;5080302;28;20055;-68
2022/05/04 08:09:46;;;;;;;12.68;1.85;;;;;;;;;;5076045;28;20063;-68
2022/05/04 08:12:13;;;;;;;8.32;2.10;;;;;;;;;;5082719;28;21062;-68
2022/05/04 08:14:40;;;;;;;8.80;2.00;;;;;;;;;;5074723;28;20129;-68
2022/05/04 08:17:08;;;;;;;11.23;2.25;;;;;;;;;;5079189;28;20052;-68
2022/05/04 08:19:35;;;;;;;8.88;1.52;;;;;;;;;;5075970;28;20052;-69
2022/05/04 08:22:04;;;;;;;11.02;1.80;;;;;;;;;;5073999;28;20040;-69
2022/05/04 08:24:31;;;;;;;8.65;1.60;;;;;;;;;;5077734;28;20128;-68
2022/05/04 08:26:58;;;;;;;8.43;2.05;;;;;;;;;;5082613;28;20101;-68
2022/05/04 08:29:25;;;;;;;11.65;2.00;;;;;;;;;;5081210;28;20052;-68
2022/05/04 08:31:52;;;;;;;7.10;2.00;;;;;;;;;;5075482;28;20101;-68
2022/05/04 08:34:20;;;;;;;10.77;1.95;;;;;;;;;;5078614;28;20048;-68
2022/05/04 08:36:47;;;;;;;6.97;1.67;;;;;;;;;;5082554;28;20460;-68
2022/05/04 08:39:15;;;;;;;7.00;1.73;;;;;;;;;;5076238;28;20044;-68
2022/05/04 08:41:43;;;;;;;7.00;1.80;;;;;;;;;;5080129;28;20051;-68
2022/05/04 08:44:11;;;;;;;7.55;2.00;;;;;;;;;;5079598;28;20056;-68
2022/05/04 08:46:40;;;;;;;9.88;2.17;;;;;;;;;;5081998;28;20097;-68
2022/05/04 08:49:07;;;;;;;11.88;2.22;;;;;;;;;;5082709;28;20494;-68
2022/05/04 08:51:36;;;;;;;9.13;1.75;;;;;;;;;;5082374;28;20052;-68
2022/05/04 08:54:04;;;;;;;10.73;1.92;;;;;;;;;;5079041;28;20047;-68
2022/05/04 08:56:33;;;;;;;8.23;1.88;;;;;;;;;;5079707;28;20055;-68
2022/05/04 08:59:02;;;;;;;9.02;2.05;;;;;;;;;;5082134;28;20063;-68
2022/05/04 09:01:29;;;;;;;7.35;2.00;;;;;;;;;;5080535;28;20141;-68
2022/05/04 09:03:59;;;;;;;8.13;2.40;;;;;;;;;;5081138;28;20515;-68
2022/05/04 09:06:27;;;;;;;10.20;2.33;;;;;;;;;;5079171;28;20043;-68
2022/05/04 09:08:55;;;;;;;10.25;2.10;;;;;;;;;;5079839;28;20156;-68
2022/05/04 09:11:23;;;;;;;10.10;1.83;;;;;;;;;;5081585;28;20055;-69
2022/05/04 09:13:54;;;;;;;7.68;1.70;;;;;;;;;;5081133;28;20036;-68
2022/05/04 09:16:29;;;;;;;8.93;1.90;;;;;;;;;;5077962;28;20059;-68
2022/05/04 09:18:56;;;;;;;11.50;2.35;;;;;;;;;;5079402;28;20581;-68
2022/05/04 09:21:23;;;;;;;9.80;1.50;;;;;;;;;;5080730;28;20056;-68
2022/05/04 09:23:53;;;;;;;6.40;1.70;;;;;;;;;;5080224;28;20281;-68
2022/05/04 09:26:21;;;;;;;10.60;1.75;;;;;;;;;;5083970;28;20491;-68
2022/05/04 09:28:51;;;;;;;10.10;2.20;;;;;;;;;;5079257;28;20079;-68
2022/05/04 09:31:24;;;;;;;9.60;1.90;;;;;;;;;;5078782;28;20143;-68
2022/05/04 09:33:55;;;;;;;7.38;1.70;;;;;;;;;;5081735;28;20052;-68
2022/05/04 09:36:35;;;;;;;9.75;2.17;;;;;;;;;;5082072;28;20445;-68
2022/05/04 09:44:58;;;;;;;6.35;1.70;;;;;;;;;;5081000;28;20135;-68
2022/05/04 09:47:26;;;;;;;10.07;1.98;;;;;;;;;;5081028;28;20056;-68
2022/05/04 09:50:03;;;;;;;5.72;1.70;;;;;;;;;;5085158;28;20052;-68
2022/05/04 09:52:30;;;;;;;6.60;1.83;;;;;;;;;;5082980;28;20052;-69
2022/05/04 09:55:00;;;;;;;6.93;1.60;;;;;;;;;;5085940;28;20044;-69
2022/05/04 09:57:27;;;;;;;10.52;1.70;;;;;;;;;;5084022;28;20402;-68
2022/05/04 09:59:55;;;;;;;11.02;2.60;;;;;;;;;;5084295;28;20048;-68
2022/05/04 10:02:22;;;;;;;7.78;1.80;;;;;;;;;;5084866;28;20048;-68
2022/05/04 10:04:51;;;;;;;10.10;1.85;;;;;;;;;;5084115;28;20044;-68
2022/05/04 10:07:18;;;;;;;6.43;1.88;;;;;;;;;;5083920;28;20054;-68
2022/05/04 10:09:45;;;;;;;8.55;1.83;;;;;;;;;;5085296;28;20052;-68
2022/05/04 10:12:13;;;;;;;7.63;2.00;;;;;;;;;;5086338;28;20044;-68
2022/05/04 10:14:42;;;;;;;7.90;1.65;;;;;;;;;;5084634;28;20044;-68
2022/05/04 10:17:12;;;;;;;5.50;1.58;;;;;;;;;;5081835;28;20055;-68
2022/05/04 10:19:44;;;;;;;8.13;1.85;;;;;;;;;;5085494;28;20040;-68
2022/05/04 10:22:15;;;;;;;5.87;1.67;;;;;;;;;;5087797;28;20055;-68
2022/05/04 10:24:44;;;;;;;13.90;1.90;;;;;;;;;;5089707;28;20109;-68
2022/05/04 10:27:18;;;;;;;8.55;1.95;;;;;;;;;;5089166;28;20052;-68
2022/05/04 10:32:34;;;;;;;9.70;2.03;;;;;;;;;;5087833;28;20058;-68
2022/05/04 10:35:14;;;;;;;10.10;2.40;;;;;;;;;;5085104;28;20589;-68
2022/05/04 10:37:57;;;;;;;7.63;2.03;;;;;;;;;;5091228;28;20125;-68
2022/05/04 10:40:26;;;;;;;6.93;1.77;;;;;;;;;;5072517;28;20048;-68
2022/05/04 10:42:57;;;;;;;8.40;2.20;;;;;;;;;;5089120;28;21643;-68
2022/05/04 10:45:24;;;;;;;10.55;2.20;;;;;;;;;;5087396;28;20121;-68
2022/05/04 10:47:52;;;;;;;7.57;1.85;;;;;;;;;;5082569;28;20118;-68
2022/05/04 10:50:19;;;;;;;10.45;2.35;;;;;;;;;;5087253;28;20117;-69
2022/05/04 10:52:50;;;;;;;9.15;2.00;;;;;;;;;;5088908;28;20048;-69
2022/05/04 10:55:18;;;;;;;10.13;2.58;;;;;;;;;;5085793;28;20083;-69
2022/05/04 10:57:47;;;;;;;9.77;2.33;;;;;;;;;;5089494;28;20043;-69
2022/05/04 11:00:21;;;;;;;6.72;1.88;;;;;;;;;;5092001;28;20044;-69
2022/05/04 11:02:50;;;;;;;9.10;2.08;;;;;;;;;;5093260;28;20075;-69
2022/05/04 11:05:17;;;;;;;9.68;2.20;;;;;;;;;;5090932;28;20080;-68
2022/05/04 11:07:48;;;;;;;6.75;2.10;;;;;;;;;;5090128;28;20106;-69
2022/05/04 11:10:15;;;;;;;8.48;2.40;;;;;;;;;;5084356;28;20052;-69
2022/05/04 11:12:43;;;;;;;9.02;2.00;;;;;;;;;;5085611;28;20583;-69
2022/05/04 11:15:12;;;;;;;8.85;2.00;;;;;;;;;;5083044;28;20048;-68
2022/05/04 11:17:39;;;;;;;6.07;1.90;;;;;;;;;;5079147;28;20136;-69
2022/05/04 11:20:07;;;;;;;7.85;2.55;;;;;;;;;;5079181;28;20787;-69
2022/05/04 11:22:40;;;;;;;11.23;2.38;;;;;;;;;;5073830;28;20056;-69
2022/05/04 11:25:07;;;;;;;9.73;2.67;;;;;;;;;;5079572;28;20079;-69
2022/05/04 11:27:35;;;;;;;9.65;2.63;;;;;;;;;;5076381;28;20401;-69
2022/05/04 11:30:04;;;;;;;7.82;2.65;;;;;;;;;;5084881;28;20056;-69
2022/05/04 11:32:34;;;;;;;7.35;2.35;;;;;;;;;;5084985;28;20063;-69
2022/05/04 11:35:01;;;;;;;6.97;2.20;;;;;;;;;;5092182;28;20044;-69
2022/05/04 11:37:31;;;;;;;11.18;2.80;;;;;;;;;;5088945;28;20101;-69
2022/05/04 11:39:59;;;;;;;12.18;2.90;;;;;;;;;;5091145;28;20051;-69
2022/05/04 11:42:26;;;;;;;6.40;2.47;;;;;;;;;;5089259;28;20055;-69
2022/05/04 11:44:56;;;;;;;6.95;2.20;;;;;;;;;;5086047;28;20051;-69
2022/05/04 11:47:23;;;;;;;8.82;2.88;;;;;;;;;;5089360;28;20415;-69
2022/05/04 11:49:55;;;;;;;8.07;2.80;;;;;;;;;;5084715;28;21245;-70
2022/05/04 11:52:22;;;;;;;7.07;2.10;;;;;;;;;;5087356;28;20570;-69
2022/05/04 11:54:49;;;;;;;10.65;2.92;;;;;;;;;;5091622;28;20060;-70
2022/05/04 11:57:19;;;;;;;10.32;2.55;;;;;;;;;;5088811;28;20047;-69
2022/05/04 11:59:47;;;;;;;6.25;2.15;;;;;;;;;;5079387;28;20053;-70
2022/05/04 12:02:14;;;;;;;6.35;2.42;;;;;;;;;;5087854;28;20071;-69
2022/05/04 12:04:42;;;;;;;8.07;2.53;;;;;;;;;;5086688;28;20106;-72
2022/05/04 12:07:11;;;;;;;8.15;2.60;;;;;;;;;;5087425;28;20058;-69
2022/05/04 12:09:38;;;;;;;9.38;2.45;;;;;;;;;;5087103;28;20055;-69
2022/05/04 12:12:06;;;;;;;10.32;2.70;;;;;;;;;;5086330;28;20052;-69
2022/05/04 12:14:34;;;;;;;9.75;2.53;;;;;;;;;;5086693;28;20305;-69
2022/05/04 12:17:01;;;;;;;8.95;2.85;;;;;;;;;;5086583;28;20052;-69
2022/05/04 12:19:29;;;;;;;8.30;2.45;;;;;;;;;;5085509;28;20087;-70
2022/05/04 12:21:57;;;;;;;12.20;2.50;;;;;;;;;;5086632;28;20105;-70
2022/05/04 12:24:26;;;;;;;7.45;2.60;;;;;;;;;;5087789;28;20059;-70
2022/05/04 12:26:55;;;;;;;9.55;2.72;;;;;;;;;;5088534;28;20064;-70
2022/05/04 12:34:53;;;;;;;6.70;2.42;;;;;;;;;;5085835;28;20063;-70
2022/05/04 12:37:21;;;;;;;7.47;2.50;;;;;;;;;;5092656;28;20583;-70
2022/05/04 12:39:50;;;;;;;7.68;2.53;;;;;;;;;;5086383;28;20160;-70
2022/05/04 12:42:17;;;;;;;7.63;2.30;;;;;;;;;;5087385;28;20127;-70
2022/05/04 12:44:49;;;;;;;8.98;2.83;;;;;;;;;;5085750;28;20055;-70
2022/05/04 12:47:16;;;;;;;8.43;3.05;;;;;;;;;;5086520;28;20048;-70
2022/05/04 12:49:44;;;;;;;11.13;3.03;;;;;;;;;;5086504;28;20056;-70
2022/05/04 12:52:11;;;;;;;8.23;2.80;;;;;;;;;;5085069;28;20370;-70
2022/05/04 12:54:39;;;;;;;7.85;2.85;;;;;;;;;;5085276;28;20091;-70
2022/05/04 12:57:08;;;;;;;6.85;2.50;;;;;;;;;;5091316;28;20836;-70
2022/05/04 12:59:36;;;;;;;10.85;3.08;;;;;;;;;;5081127;28;20055;-70
2022/05/04 13:02:03;;;;;;;7.25;2.67;;;;;;;;;;5084039;28;20056;-70
2022/05/04 13:04:31;;;;;;;7.85;2.75;;;;;;;;;;5088726;28;20141;-70
2022/05/04 13:06:59;;;;;;;9.23;2.95;;;;;;;;;;5085949;28;20056;-70
2022/05/04 13:09:28;;;;;;;7.80;2.60;;;;;;;;;;5088056;28;20062;-70
2022/05/04 13:11:55;;;;;;;10.60;2.95;;;;;;;;;;5084765;28;20044;-70
2022/05/04 13:14:24;;;;;;;6.78;2.47;;;;;;;;;;5089800;28;20048;-70
2022/05/04 13:16:51;;;;;;;8.50;2.92;;;;;;;;;;5085555;28;20080;-70
2022/05/04 13:19:18;;;;;;;10.05;2.85;;;;;;;;;;5085797;28;20051;-70
2022/05/04 13:21:46;;;;;;;9.50;2.60;;;;;;;;;;5084739;28;20062;-70
2022/05/04 13:24:13;;;;;;;9.68;2.55;;;;;;;;;;5086367;28;20105;-70
2022/05/04 13:26:40;;;;;;;9.50;2.60;;;;;;;;;;5087347;28;20048;-70
2022/05/04 13:29:08;;;;;;;13.27;3.15;;;;;;;;;;5087991;28;20055;-70
2022/05/04 13:31:36;;;;;;;8.45;3.08;;;;;;;;;;5086109;28;20051;-70
2022/05/04 13:34:03;;;;;;;7.65;2.70;;;;;;;;;;5085609;28;20079;-70
2022/05/04 13:36:31;;;;;;;11.85;3.13;;;;;;;;;;5082392;28;20375;-70
2022/05/04 13:38:58;;;;;;;8.18;2.92;;;;;;;;;;5089188;28;20052;-71
2022/05/04 13:41:25;;;;;;;10.10;3.00;;;;;;;;;;5088281;28;20067;-70
2022/05/04 13:43:53;;;;;;;10.32;2.40;;;;;;;;;;5087656;28;20158;-71
2022/05/04 13:46:20;;;;;;;8.43;2.92;;;;;;;;;;5085988;28;20048;-70
2022/05/04 13:48:48;;;;;;;7.35;3.00;;;;;;;;;;5083628;28;20048;-70
2022/05/04 13:54:01;;;;;;;8.10;2.80;;;;;;;;;;5095186;28;20048;-70
2022/05/04 13:56:28;;;;;;;7.93;2.83;;;;;;;;;;5080888;28;20048;-70
2022/05/04 13:58:55;;;;;;;9.40;3.03;;;;;;;;;;5091091;28;20472;-70
2022/05/04 14:01:23;;;;;;;7.82;2.90;;;;;;;;;;5092675;28;20080;-70
2022/05/04 14:03:51;;;;;;;9.65;2.78;;;;;;;;;;5091238;28;20059;-70
2022/05/04 14:06:19;;;;;;;7.38;2.67;;;;;;;;;;5093609;28;20058;-70
2022/05/04 14:08:48;;;;;;;8.02;2.80;;;;;;;;;;5090252;28;20040;-70
2022/05/04 14:11:15;;;;;;;12.80;2.95;;;;;;;;;;5085545;28;20059;-70
2022/05/04 14:13:45;;;;;;;7.93;2.65;;;;;;;;;;5087562;28;20055;-70
2022/05/04 14:16:13;;;;;;;7.00;2.17;;;;;;;;;;5088237;28;20044;-70
2022/05/04 14:18:41;;;;;;;7.75;2.55;;;;;;;;;;5087043;28;20043;-70
2022/05/04 14:21:09;;;;;;;8.18;2.35;;;;;;;;;;5088267;28;20052;-71
2022/05/04 14:23:36;;;;;;;8.38;2.80;;;;;;;;;;5088496;28;20387;-70
2022/05/04 14:26:04;;;;;;;7.88;2.60;;;;;;;;;;5085147;28;20049;-70
2022/05/04 14:28:31;;;;;;;8.02;2.55;;;;;;;;;;5087955;28;20055;-70
2022/05/04 14:30:59;;;;;;;12.07;2.72;;;;;;;;;;5088177;28;20862;-70
2022/05/04 14:33:27;;;;;;;7.22;2.45;;;;;;;;;;5087345;28;20052;-70
2022/05/04 14:35:54;;;;;;;7.82;2.10;;;;;;;;;;5088473;28;20067;-70
2022/05/04 14:38:23;;;;;;;8.70;2.20;;;;;;;;;;5088604;28;20055;-70
2022/05/04 14:40:51;;;;;;;6.53;2.50;;;;;;;;;;5083019;28;20059;-71
2022/05/04 14:43:19;;;;;;;5.43;2.25;;;;;;;;;;5087395;28;20056;-70
2022/05/04 14:45:46;;;;;;;7.15;2.03;;;;;;;;;;5084662;28;20075;-70
2022/05/04 14:48:13;;;;;;;9.60;2.50;;;;;;;;;;5090134;28;20774;-70
2022/05/04 14:50:40;;;;;;;5.93;2.47;;;;;;;;;;5087603;28;20524;-70
2022/05/04 14:53:08;;;;;;;7.07;2.53;;;;;;;;;;5092749;28;20055;-70
2022/05/04 14:55:36;;;;;;;8.05;2.40;;;;;;;;;;5090329;28;20059;-70
2022/05/04 14:58:03;;;;;;;9.80;2.78;;;;;;;;;;5088026;28;20056;-70
2022/05/04 15:00:31;;;;;;;6.90;2.50;;;;;;;;;;5088265;28;20051;-70
2022/05/04 15:05:43;;;;;;;5.78;2.28;;;;;;;;;;5087728;28;20040;-70
2022/05/04 15:08:10;;;;;;;11.50;2.90;;;;;;;;;;5083183;28;20059;-70
2022/05/04 15:10:39;;;;;;;9.00;2.33;;;;;;;;;;5083705;28;20423;-70
2022/05/04 15:13:06;;;;;;;9.90;2.70;;;;;;;;;;5093295;28;20060;-70
2022/05/04 15:15:33;;;;;;;8.98;2.67;;;;;;;;;;5087735;28;20059;-70
2022/05/04 15:18:00;;;;;;;8.98;2.60;;;;;;;;;;5089530;28;20089;-70